Time;durP1;ratioP1;P1;durP2;ratioP2;P2;SDS_P1;SDS_P2;PMS_P1;PMS_P2;Temp;Humidity;BMP_temperature;BMP_pressure;BME280_temperature;BME280_humidity;BME280_pressure;Samples;Min_cycle;Max_cycle;Signal;HPM_P1;HPM_P2
2021/04/01 00:00:40;;;;;;;5.45;4.20;;;13.70;62.50;;;13.19;44.85;95203.81;4997843;28;20200;-80
2021/04/01 00:03:07;;;;;;;7.07;4.40;;;13.60;62.60;;;13.21;45.41;95195.72;5015335;28;20236;-80
2021/04/01 00:05:34;;;;;;;8.07;3.92;;;13.60;62.50;;;13.21;45.42;95195.72;5015865;28;20200;-81
2021/04/01 00:08:01;;;;;;;8.05;4.32;;;13.70;62.70;;;13.23;45.58;95188.41;5032021;28;20216;-80
2021/04/01 00:10:32;;;;;;;7.22;3.83;;;13.60;62.70;;;13.22;45.90;95184.16;5009867;28;20224;-80
2021/04/01 00:12:58;;;;;;;8.68;4.18;;;13.60;63.10;;;13.23;45.97;95191.88;5012348;28;20270;-80
2021/04/01 00:15:26;;;;;;;7.53;4.00;;;13.60;62.90;;;13.23;45.76;95181.34;5028555;28;20220;-81
2021/04/01 00:17:53;;;;;;;8.00;3.92;;;13.60;62.80;;;13.23;45.62;95189.25;5012113;28;20299;-79
2021/04/01 00:20:20;;;;;;;5.30;3.63;;;13.70;63.80;;;13.24;45.79;95176.88;5012456;28;20197;-80
2021/04/01 00:22:47;;;;;;;7.20;4.47;;;13.60;62.80;;;13.28;46.95;95175.44;5011887;28;20236;-80
2021/04/01 00:25:17;;;;;;;5.85;3.83;;;13.60;63.20;;;13.34;46.53;95156.22;5014318;28;20231;-81
2021/04/01 00:27:44;;;;;;;7.00;4.80;;;13.60;63.30;;;13.43;46.94;95170.03;5031485;28;20227;-80
2021/04/01 00:30:12;;;;;;;6.35;4.07;;;13.70;64.40;;;13.51;46.83;95158.44;5006861;28;20201;-79
2021/04/01 00:32:39;;;;;;;6.47;4.00;;;13.70;63.60;;;13.60;46.57;95162.50;4991570;28;20292;-79
2021/04/01 00:35:07;;;;;;;7.00;3.95;;;13.70;63.60;;;13.66;46.47;95155.59;4992223;28;20201;-81
2021/04/01 00:37:34;;;;;;;6.97;4.15;;;13.80;63.40;;;13.75;46.45;95157.81;4976184;28;20249;-80
2021/04/01 00:40:01;;;;;;;7.15;3.85;;;13.90;63.50;;;13.83;46.27;95154.16;5014017;28;20198;-81
2021/04/01 00:42:28;;;;;;;6.85;3.85;;;13.90;63.40;;;13.84;46.35;95161.06;4991935;28;20718;-80
2021/04/01 00:45:07;;;;;;;7.53;4.20;;;14.00;63.60;;;13.89;46.69;95155.97;4992954;28;20289;-81
2021/04/01 00:47:42;;;;;;;9.10;4.38;;;14.00;63.60;;;13.97;47.06;95156.78;4975964;28;20221;-80
2021/04/01 00:50:13;;;;;;;6.43;4.50;;;14.10;63.90;;;14.05;46.53;95146.00;4997593;28;20223;-81
2021/04/01 00:52:41;;;;;;;6.40;3.88;;;14.10;63.70;;;14.13;46.52;95147.59;5014752;28;20618;-80
2021/04/01 00:55:09;;;;;;;7.28;3.70;;;14.30;63.70;;;14.18;46.60;95140.66;5031315;28;20196;-81
2021/04/01 00:57:38;;;;;;;6.20;3.60;;;14.30;63.70;;;14.25;46.17;95143.28;5015017;28;20258;-81
2021/04/01 01:00:10;;;;;;;6.70;4.53;;;14.40;63.60;;;14.27;46.43;95137.78;5013332;28;20204;-81
2021/04/01 01:02:37;;;;;;;9.45;3.70;;;14.40;63.60;;;14.30;46.53;95132.91;5031207;28;20266;-80
2021/04/01 01:05:06;;;;;;;5.38;3.33;;;14.50;63.60;;;14.33;46.34;95132.50;5013724;28;20225;-80
2021/04/01 01:07:34;;;;;;;5.63;3.50;;;14.50;63.60;;;14.36;46.03;95126.00;5031105;28;20224;-80
2021/04/01 01:10:08;;;;;;;4.57;3.25;;;14.50;63.30;;;14.35;45.56;95125.16;5031278;28;20233;-81
2021/04/01 01:12:35;;;;;;;5.75;3.53;;;14.60;63.20;;;14.35;45.90;95129.66;5017282;28;20211;-81
2021/04/01 01:15:04;;;;;;;6.85;3.55;;;14.50;63.20;;;14.30;45.93;95126.84;4975878;28;20287;-81
2021/04/01 01:17:31;;;;;;;7.32;3.60;;;14.50;63.20;;;14.23;46.00;95126.84;4991187;28;20279;-81
2021/04/01 01:19:58;;;;;;;5.15;3.50;;;14.50;63.10;;;14.15;46.19;95124.47;4997211;28;20213;-79
2021/04/01 01:22:25;;;;;;;6.03;3.70;;;14.50;63.10;;;14.05;46.42;95125.72;5009590;28;20258;-80
2021/04/01 01:24:53;;;;;;;5.88;3.80;;;14.50;63.20;;;14.00;46.36;95129.97;4989377;28;20282;-79
2021/04/01 01:27:21;;;;;;;6.10;3.70;;;14.40;63.10;;;13.94;46.05;95115.81;4988491;28;20291;-79
2021/04/01 01:29:48;;;;;;;5.82;3.30;;;14.40;63.40;;;13.92;46.56;95120.47;4975490;28;20224;-80
2021/04/01 01:32:18;;;;;;;7.18;3.60;;;14.30;63.30;;;13.92;46.73;95120.47;4986296;28;20221;-79
2021/04/01 01:34:46;;;;;;;5.75;3.42;;;14.40;63.60;;;13.90;46.68;95118.06;5006210;28;20205;-79
2021/04/01 01:37:14;;;;;;;5.75;3.40;;;14.30;63.60;;;13.88;46.42;95114.81;4991302;28;20225;-78
2021/04/01 01:39:42;;;;;;;4.10;3.30;;;14.20;63.40;;;13.84;46.45;95120.69;4999125;28;20188;-78
2021/04/01 01:42:09;;;;;;;5.65;3.35;;;14.20;63.40;;;13.77;46.60;95113.59;5003423;28;20232;-77
2021/04/01 01:44:37;;;;;;;5.47;3.50;;;14.10;63.50;;;13.73;46.61;95109.78;4997893;28;20223;-78
2021/04/01 01:47:04;;;;;;;8.80;3.47;;;14.10;63.40;;;13.69;46.82;95107.75;5010765;28;20224;-79
2021/04/01 01:49:41;;;;;;;5.90;3.38;;;14.10;63.50;;;13.64;47.29;95105.72;5002769;28;20204;-78
2021/04/01 01:52:08;;;;;;;4.57;3.08;;;14.10;63.80;;;13.60;47.06;95107.16;4995141;28;20243;-78
2021/04/01 01:54:36;;;;;;;5.32;3.50;;;14.10;63.60;;;13.57;47.46;95107.56;4994426;28;20216;-78
2021/04/01 01:57:03;;;;;;;5.20;3.45;;;14.00;63.80;;;13.54;47.41;95105.34;5000090;28;20303;-78
2021/04/01 01:59:30;;;;;;;7.88;3.28;;;14.00;63.90;;;13.53;47.79;95111.63;5018537;28;20199;-80
2021/04/01 02:01:57;;;;;;;4.63;3.38;;;13.90;63.90;;;13.50;47.89;95110.22;5003090;28;20237;-80
2021/04/01 02:04:25;;;;;;;5.20;3.55;;;14.00;64.10;;;13.54;47.90;95108.00;4991196;28;20217;-80
2021/04/01 02:06:52;;;;;;;4.95;3.13;;;13.90;64.10;;;13.60;47.65;95109.81;4997242;28;20224;-79
2021/04/01 02:09:18;;;;;;;5.28;3.42;;;13.90;64.30;;;13.64;47.38;95100.47;4996892;28;20228;-80
2021/04/01 02:11:45;;;;;;;5.80;3.20;;;13.90;64.20;;;13.71;47.67;95097.81;5015648;28;20633;-80
2021/04/01 02:14:12;;;;;;;4.53;3.30;;;14.00;64.30;;;13.73;47.75;95099.22;5032210;28;20203;-80
2021/04/01 02:16:39;;;;;;;4.20;3.15;;;14.00;64.20;;;13.75;47.77;95096.38;5015577;28;20637;-80
2021/04/01 02:19:06;;;;;;;6.03;3.20;;;14.00;64.20;;;13.77;47.11;95094.34;5017845;28;20232;-80
2021/04/01 02:21:33;;;;;;;6.18;3.10;;;14.00;64.00;;;13.77;46.78;95094.34;5044815;28;20215;-80
2021/04/01 02:24:00;;;;;;;6.75;3.17;;;14.00;63.90;;;13.74;47.02;95098.22;5017406;28;20628;-80
2021/04/01 02:26:26;;;;;;;8.30;3.20;;;14.00;63.90;;;13.73;46.92;95093.13;5024030;28;20205;-80
2021/04/01 02:28:53;;;;;;;8.80;3.30;;;14.00;63.90;;;13.69;46.64;95086.66;4995790;28;20190;-79
2021/04/01 02:31:20;;;;;;;6.53;3.17;;;14.00;64.00;;;13.67;46.83;95091.31;5013817;28;20291;-80
2021/04/01 02:33:48;;;;;;;4.75;3.15;;;14.00;63.90;;;13.66;46.91;95092.34;4998057;28;20295;-80
2021/04/01 02:36:15;;;;;;;6.43;3.72;;;14.00;63.90;;;13.64;47.47;95089.91;5017587;28;20250;-80
2021/04/01 02:38:43;;;;;;;4.70;3.33;;;14.00;64.00;;;13.68;47.21;95091.09;5016825;28;20227;-80
2021/04/01 02:41:11;;;;;;;7.18;3.58;;;14.00;64.10;;;13.69;47.07;95078.75;5013966;28;20235;-79
2021/04/01 02:43:38;;;;;;;6.57;3.42;;;14.00;64.00;;;13.77;47.49;95084.59;4978251;28;20640;-80
2021/04/01 02:46:07;;;;;;;6.07;3.72;;;14.00;65.20;;;13.83;47.65;95076.88;5008704;28;20617;-80
2021/04/01 02:48:35;;;;;;;6.75;3.85;;;14.00;64.20;;;13.89;47.50;95084.78;5017047;28;20220;-80
2021/04/01 02:51:04;;;;;;;5.80;3.85;;;14.00;64.30;;;13.96;47.36;95083.94;5032839;28;20219;-78
2021/04/01 02:53:31;;;;;;;5.90;3.95;;;14.10;64.30;;;14.01;47.30;95076.22;5012691;28;20201;-80
2021/04/01 02:55:57;;;;;;;4.93;3.60;;;14.10;64.30;;;14.03;47.15;95080.25;5017896;28;20197;-79
2021/04/01 02:58:25;;;;;;;7.88;3.95;;;14.20;64.30;;;14.07;47.04;95078.00;5010686;28;20672;-80
2021/04/01 03:00:53;;;;;;;7.65;3.20;;;14.20;64.20;;;14.07;47.05;95086.75;5000229;28;20647;-78
2021/04/01 03:03:31;;;;;;;4.95;3.28;;;14.30;64.20;;;14.09;46.89;95075.97;5010642;28;20228;-80
2021/04/01 03:06:00;;;;;;;6.32;3.75;;;14.30;64.00;;;14.07;47.20;95078.84;5018663;28;20201;-79
2021/04/01 03:08:27;;;;;;;5.32;3.55;;;14.30;64.00;;;14.01;47.05;95068.31;5012913;28;20809;-80
2021/04/01 03:10:54;;;;;;;6.65;4.00;;;14.30;64.00;;;14.01;47.08;95074.41;4996249;28;20658;-78
2021/04/01 03:13:22;;;;;;;8.13;3.78;;;14.30;63.90;;;13.98;47.25;95071.38;4993440;28;20213;-79
2021/04/01 03:15:50;;;;;;;6.80;3.88;;;14.30;64.00;;;13.96;46.90;95078.69;4993909;28;20248;-79
2021/04/01 03:18:19;;;;;;;4.63;3.40;;;14.30;64.00;;;13.90;46.90;95077.66;4978923;28;20224;-79
2021/04/01 03:20:50;;;;;;;5.07;3.50;;;14.20;63.90;;;13.82;47.09;95075.25;4993894;28;20202;-78
2021/04/01 03:23:17;;;;;;;8.65;4.38;;;14.20;63.90;;;13.74;47.29;95071.03;5010609;28;20225;-78
2021/04/01 03:25:44;;;;;;;7.80;3.95;;;14.20;63.90;;;13.70;47.40;95068.00;4994360;28;20197;-79
2021/04/01 03:28:12;;;;;;;6.80;4.22;;;14.10;63.90;;;13.70;48.05;95077.75;5006632;28;20648;-79
2021/04/01 03:30:46;;;;;;;6.53;3.70;;;14.10;64.20;;;13.69;47.30;95069.00;5001044;28;20633;-79
2021/04/01 03:33:13;;;;;;;4.85;3.75;;;14.10;64.10;;;13.67;47.59;95072.88;4996644;28;20613;-78
2021/04/01 03:35:40;;;;;;;5.97;4.30;;;14.10;64.20;;;13.66;48.16;95069.44;5013283;28;20212;-78
2021/04/01 03:38:08;;;;;;;7.05;4.15;;;14.10;64.40;;;13.68;48.54;95072.66;5001920;28;20217;-79
2021/04/01 03:40:35;;;;;;;6.97;3.80;;;14.00;64.80;;;13.70;47.66;95072.47;5006448;28;20203;-78
2021/04/01 03:43:02;;;;;;;5.22;4.25;;;14.00;64.40;;;13.70;47.99;95070.63;5006791;28;20272;-79
2021/04/01 03:45:29;;;;;;;7.45;4.30;;;14.00;64.30;;;13.70;47.96;95064.56;5002776;28;20208;-80
2021/04/01 03:47:56;;;;;;;6.22;4.00;;;14.00;64.40;;;13.73;47.92;95062.31;4993844;28;20224;-79
2021/04/01 03:50:23;;;;;;;7.22;3.90;;;14.10;64.60;;;13.73;47.99;95064.13;4992603;28;20201;-78
2021/04/01 03:52:50;;;;;;;6.03;4.25;;;14.00;64.50;;;13.71;47.98;95061.72;5010263;28;20307;-79
2021/04/01 04:01:11;;;;;;;8.43;4.30;;;14.00;64.50;;;13.73;48.07;95064.13;4993144;28;20256;-80
2021/04/01 04:04:05;;;;;;;6.53;4.07;;;14.00;64.60;;;13.73;47.88;95062.31;4978136;28;20550;-80
2021/04/01 04:11:53;;;;;;;8.43;4.68;;;14.00;64.40;;;13.73;47.94;95050.97;5013025;28;20529;-79
2021/04/01 04:16:46;;;;;;;7.20;4.40;;;14.20;64.60;;;13.80;47.56;95057.03;4995243;28;20236;-79
2021/04/01 04:19:14;;;;;;;7.13;4.10;;;14.10;64.50;;;13.82;47.54;95060.25;5018763;28;20690;-80
2021/04/01 04:21:40;;;;;;;8.30;4.10;;;14.10;64.40;;;13.80;47.34;95058.84;5031561;28;20771;-79
2021/04/01 04:24:10;;;;;;;6.70;4.32;;;14.10;64.30;;;13.79;47.59;95055.41;5015471;28;20230;-80
2021/04/01 04:26:40;;;;;;;7.07;4.32;;;14.10;64.30;;;13.76;47.74;95053.19;5031924;28;20219;-80
2021/04/01 04:29:07;;;;;;;6.40;4.43;;;14.10;64.30;;;13.76;47.25;95054.00;5013457;28;20233;-79
2021/04/01 04:31:34;;;;;;;7.47;4.80;;;14.10;64.30;;;13.74;47.61;95055.22;5031700;28;20219;-80
2021/04/01 04:34:01;;;;;;;8.30;4.60;;;14.10;64.30;;;13.72;47.42;95050.16;5027904;28;20220;-80
2021/04/01 04:36:27;;;;;;;6.45;4.40;;;14.10;64.20;;;13.74;47.48;95050.78;5011796;28;20220;-80
2021/04/01 04:38:54;;;;;;;9.70;5.07;;;14.10;64.30;;;13.75;47.55;95048.94;4994987;28;20442;-79
2021/04/01 04:41:21;;;;;;;7.93;5.13;;;14.00;64.20;;;13.76;47.39;95051.34;4992202;28;20263;-79
2021/04/01 04:43:47;;;;;;;7.57;4.78;;;14.10;64.40;;;13.77;47.31;95044.28;5009912;28;20196;-79
2021/04/01 04:46:15;;;;;;;8.18;5.10;;;14.00;64.30;;;13.79;47.42;95042.22;5009511;28;20223;-79
2021/04/01 04:48:41;;;;;;;7.25;5.10;;;14.10;64.30;;;13.79;47.52;95046.69;5009990;28;20332;-79
2021/04/01 04:51:08;;;;;;;8.73;5.03;;;14.10;64.30;;;13.82;47.32;95044.44;5009223;28;20202;-78
2021/04/01 04:53:35;;;;;;;8.63;5.03;;;14.10;64.20;;;13.83;47.36;95040.78;5008153;28;20314;-79
2021/04/01 04:56:10;;;;;;;7.75;4.90;;;14.10;64.20;;;13.83;47.38;95040.78;5005835;28;20201;-80
2021/04/01 05:01:09;;;;;;;7.63;5.13;;;14.20;64.30;;;13.89;46.74;95045.22;5005527;28;20204;-80
2021/04/01 05:06:47;;;;;;;11.55;5.47;;;14.10;64.20;;;13.90;46.74;95054.75;4992019;28;20278;-80
2021/04/01 05:09:09;;;;;;;8.93;5.40;;;14.20;64.20;;;13.92;47.03;95051.91;5004985;28;20205;-81
2021/04/01 05:11:36;;;;;;;8.02;5.30;;;14.10;64.20;;;13.97;47.06;95056.56;4973691;28;20617;-80
2021/04/01 05:14:03;;;;;;;9.73;4.82;;;14.10;64.20;;;13.99;47.11;95055.34;4973700;28;20213;-81
2021/04/01 05:16:30;;;;;;;8.35;4.78;;;14.20;64.20;;;14.03;46.65;95053.88;4989303;28;20301;-80
2021/04/01 05:19:01;;;;;;;8.05;4.65;;;14.20;64.10;;;14.07;46.70;95059.56;4972222;28;20470;-80
2021/04/01 05:21:34;;;;;;;6.38;4.93;;;14.20;64.10;;;14.11;46.69;95052.84;4991256;28;20221;-80
2021/04/01 05:24:04;;;;;;;10.13;5.40;;;14.40;64.20;;;14.16;46.46;95046.94;4976419;28;20485;-80
2021/04/01 05:29:14;;;;;;;11.93;6.25;;;14.40;64.10;;;14.21;46.29;95055.03;5002920;28;20674;-80
2021/04/01 05:31:41;;;;;;;8.55;6.00;;;14.30;63.90;;;14.24;46.44;95058.06;4996961;28;20738;-78
2021/04/01 05:34:09;;;;;;;9.52;6.18;;;14.40;63.90;;;14.31;46.35;95062.50;5015074;28;20304;-78
2021/04/01 05:36:39;;;;;;;9.20;5.45;;;14.40;63.80;;;14.36;46.17;95054.75;5009912;28;20789;-79
2021/04/01 05:39:10;;;;;;;10.90;6.10;;;14.40;63.80;;;14.41;45.95;95054.91;4993440;28;20186;-78
2021/04/01 05:41:40;;;;;;;9.55;6.40;;;14.50;63.80;;;14.48;45.71;95049.63;4999567;28;20216;-79
2021/04/01 05:44:31;;;;;;;8.48;5.80;;;14.60;63.70;;;14.53;45.70;95047.94;5021635;28;20618;-79
2021/04/01 05:47:25;;;;;;;9.95;6.05;;;14.60;63.60;;;14.58;45.83;95049.94;5030735;28;20347;-79
2021/04/01 05:57:45;;;;;;;10.02;6.53;;;14.80;63.20;;;14.75;45.07;95052.91;5011558;28;20219;-79
2021/04/01 06:05:50;;;;;;;9.93;6.30;;;14.90;63.00;;;14.93;44.80;95053.97;5008273;28;20194;-79
2021/04/01 06:08:23;;;;;;;10.48;6.53;;;15.00;63.20;;;14.98;44.89;95059.44;4995189;28;20539;-80
2021/04/01 06:10:51;;;;;;;10.90;6.00;;;15.10;64.00;;;15.01;44.63;95051.06;4963471;28;20202;-80
2021/04/01 06:13:19;;;;;;;12.27;6.53;;;15.10;63.20;;;15.05;44.65;95053.06;4978552;28;20221;-80
2021/04/01 06:15:51;;;;;;;10.45;5.78;;;15.20;63.00;;;15.13;45.02;95056.47;5010511;28;20198;-80
2021/04/01 06:18:22;;;;;;;10.18;6.55;;;15.10;63.20;;;15.18;44.81;95056.63;4999926;28;20193;-79
2021/04/01 06:20:51;;;;;;;8.32;5.93;;;15.20;63.20;;;15.20;44.86;95058.03;4997699;28;20713;-80
2021/04/01 06:23:29;;;;;;;8.80;5.75;;;15.30;63.20;;;15.22;44.90;95055.16;4993904;28;20735;-79
2021/04/01 06:25:58;;;;;;;9.23;6.13;;;15.30;63.10;;;15.28;44.46;95056.13;4995036;28;20291;-79
2021/04/01 06:28:47;;;;;;;10.07;5.93;;;15.30;63.10;;;15.31;44.92;95043.28;5009233;28;20212;-78
2021/04/01 06:31:19;;;;;;;8.77;6.13;;;15.40;63.30;;;15.40;44.75;95056.22;5024273;28;20217;-80
2021/04/01 06:33:54;;;;;;;11.32;6.18;;;15.40;63.10;;;15.46;44.69;95053.50;4996105;28;20420;-80
2021/04/01 06:36:28;;;;;;;11.90;6.78;;;15.50;63.10;;;15.52;44.54;95044.69;5012958;28;20224;-79
2021/04/01 06:38:55;;;;;;;10.55;6.18;;;15.60;63.20;;;15.66;44.50;95044.56;4999242;28;20211;-79
2021/04/01 06:41:29;;;;;;;12.35;6.07;;;15.60;63.30;;;15.78;44.48;95042.00;4995349;28;20264;-80
2021/04/01 06:43:56;;;;;;;9.48;5.65;;;15.70;63.30;;;15.90;44.54;95044.75;5016436;28;20243;-79
2021/04/01 06:46:30;;;;;;;9.80;6.18;;;15.80;63.50;;;15.98;44.18;95042.59;5013425;28;20216;-79
2021/04/01 06:51:47;;;;;;;10.75;6.18;;;16.00;63.10;;;16.24;44.43;95042.50;5018456;28;20217;-79
2021/04/01 07:03:00;;;;;;;8.32;5.35;;;16.30;62.70;;;16.48;43.83;95038.88;5013584;28;20225;-80
2021/04/01 07:05:40;;;;;;;8.82;5.50;;;16.50;63.00;;;16.51;43.54;95034.97;5012888;28;20204;-80
2021/04/01 07:08:10;;;;;;;10.00;6.45;;;16.50;62.90;;;16.52;43.35;95033.94;5009695;28;20678;-80
2021/04/01 07:11:23;;;;;;;15.90;7.18;;;16.50;62.30;;;16.61;42.99;95037.06;5012992;28;20193;-80
2021/04/01 07:13:47;;;;;;;11.18;7.20;;;16.60;62.10;;;16.67;42.29;95038.81;5012387;28;20630;-78
2021/04/01 07:19:21;;;;;;;9.93;6.40;;;16.70;61.80;;;16.84;42.39;95035.53;5010783;28;20205;-81
2021/04/01 07:46:31;;;;;;;9.00;6.22;;;17.50;60.90;;;17.93;40.30;95023.59;5017330;28;20224;-78
2021/04/01 07:49:03;;;;;;;11.10;6.75;;;17.70;61.20;;;18.07;40.34;95026.84;4994106;28;20614;-79
2021/04/01 07:54:38;;;;;;;13.07;7.65;;;17.90;60.20;;;18.28;39.24;95020.06;5047753;28;20223;-80
2021/04/01 07:57:56;;;;;;;14.10;7.20;;;18.00;60.00;;;18.39;38.78;95021.06;5032502;28;20257;-78
2021/04/01 08:02:53;;;;;;;11.57;7.07;;;18.20;59.80;;;18.64;38.97;95018.03;5011379;28;20287;-79
2021/04/01 08:05:32;;;;;;;9.77;5.47;;;18.30;59.90;;;18.76;39.46;95022.47;5032325;28;20204;-79
2021/04/01 08:08:04;;;;;;;12.13;7.07;;;18.40;60.00;;;18.88;38.93;95032.00;5015928;28;20269;-78
2021/04/01 08:10:41;;;;;;;13.00;8.30;;;18.50;59.80;;;18.99;37.62;95021.53;5032524;28;20200;-78
2021/04/01 08:13:13;;;;;;;14.55;8.38;;;18.60;58.70;;;19.10;36.96;95017.97;5016316;28;20277;-77
2021/04/01 08:15:48;;;;;;;13.38;8.57;;;18.70;57.80;;;19.22;37.69;95020.56;5013712;28;20188;-78
2021/04/01 08:18:27;;;;;;;16.55;8.73;;;18.80;58.30;;;19.32;37.16;95020.72;4999096;28;20304;-77
2021/04/01 08:20:59;;;;;;;13.32;7.80;;;18.90;58.30;;;19.43;36.98;95007.56;5005486;28;20201;-76
2021/04/01 08:23:53;;;;;;;16.00;9.10;;;19.00;57.80;;;19.54;36.90;95016.47;5012627;28;20583;-75
2021/04/01 08:26:58;;;;;;;17.65;9.68;;;19.10;57.50;;;19.63;35.83;95007.03;5032068;28;20710;-76
2021/04/01 08:35:59;;;;;;;14.50;9.35;;;19.50;55.60;;;19.89;34.21;95023.34;5028202;28;20207;-75
2021/04/01 08:38:47;;;;;;;17.23;9.30;;;19.60;55.40;;;19.97;34.50;95007.75;5002006;28;20231;-75
2021/04/01 08:41:53;;;;;;;16.60;9.57;;;19.60;55.00;;;20.08;35.07;94998.03;4989525;28;20787;-77
2021/04/01 08:44:56;;;;;;;19.67;9.45;;;19.80;56.00;;;20.19;34.81;94998.13;5014491;28;20215;-77
2021/04/01 08:48:15;;;;;;;14.93;9.07;;;19.80;55.20;;;20.26;34.40;94996.06;5014709;28;20282;-78
2021/04/01 08:50:50;;;;;;;16.00;10.13;;;19.90;55.10;;;;;;5013089;28;20601;-80
2021/04/01 08:53:42;;;;;;;19.17;11.05;;;20.00;55.10;;;20.44;33.82;94992.25;5011977;28;20231;-79
2021/04/01 08:56:45;;;;;;;19.45;10.50;;;20.10;54.90;;;20.52;33.69;94989.13;4996159;28;20216;-79
2021/04/01 08:59:25;;;;;;;20.08;10.32;;;20.10;54.70;;;20.57;33.56;94986.50;5013389;28;20208;-80
2021/04/01 09:01:55;;;;;;;19.15;11.18;;;20.20;54.50;;;20.66;33.08;94983.38;5005052;28;20224;-78
2021/04/01 09:04:28;;;;;;;17.50;10.27;;;20.30;53.80;;;20.76;33.59;94988.81;5023791;28;20220;-80
2021/04/01 09:07:13;;;;;;;18.92;11.60;;;20.40;54.10;;;20.84;33.21;94977.69;5029571;28;20599;-80
2021/04/01 09:09:43;;;;;;;18.95;9.70;;;20.40;53.70;;;20.93;34.06;94986.84;5011183;28;20840;-79
2021/04/01 09:12:35;;;;;;;18.42;10.65;;;20.50;54.10;;;20.99;33.25;94968.22;5029070;28;20220;-79
2021/04/01 09:15:15;;;;;;;12.05;8.50;;;20.60;53.90;;;21.12;33.68;94986.44;4993497;28;20203;-80
2021/04/01 09:17:42;;;;;;;18.42;10.55;;;20.70;54.40;;;21.20;33.11;94977.13;4988976;28;20315;-81
2021/04/01 09:20:25;;;;;;;20.95;12.15;;;20.80;53.50;;;21.26;32.56;94968.94;5001205;28;20204;-81
2021/04/01 09:22:59;;;;;;;22.90;12.65;;;20.90;53.40;;;21.31;31.32;94962.00;4989562;28;20232;-80
2021/04/01 09:25:45;;;;;;;20.17;12.07;;;20.90;52.10;;;21.40;32.49;94960.47;4989611;28;20200;-80
2021/04/01 09:28:13;;;;;;;18.55;11.93;;;21.00;53.30;;;21.43;31.22;94949.25;4993540;28;20241;-81
2021/04/01 09:30:43;;;;;;;17.88;11.00;;;21.10;52.20;;;21.49;32.22;94950.88;5010620;28;20203;-81
2021/04/01 09:33:48;;;;;;;22.35;11.68;;;21.10;52.40;;;21.59;31.92;94952.81;4973737;28;20241;-81
2021/04/01 09:36:16;;;;;;;19.70;11.68;;;21.30;52.50;;;21.67;32.26;94947.00;4985435;28;20690;-81
2021/04/01 09:38:49;;;;;;;17.30;10.63;;;21.30;52.70;;;21.77;32.49;94953.44;4993932;28;20213;-80
2021/04/01 09:41:33;;;;;;;17.30;11.13;;;21.30;53.00;;;21.85;32.11;94953.75;5011792;28;20210;-80
2021/04/01 09:44:07;;;;;;;17.35;9.90;;;21.50;52.50;;;21.93;31.83;94952.41;5003582;28;20195;-81
2021/04/01 09:46:36;;;;;;;18.20;10.60;;;21.50;51.90;;;22.01;31.47;94946.56;4993132;28;20219;-80
2021/04/01 09:49:11;;;;;;;15.45;10.15;;;21.60;51.50;;;22.10;31.55;94940.72;4993580;28;20204;-80
2021/04/01 09:51:40;;;;;;;21.10;11.07;;;21.60;52.00;;;22.16;30.62;94943.13;4975318;28;20222;-78
2021/04/01 09:54:16;;;;;;;16.63;10.10;;;21.70;51.20;;;22.21;30.48;94932.44;5008687;28;20236;-80
2021/04/01 09:56:56;;;;;;;18.58;10.95;;;21.80;50.90;;;22.29;29.96;94930.31;5007887;28;20230;-79
2021/04/01 09:59:41;;;;;;;15.85;10.00;;;21.90;50.00;;;22.36;29.40;94925.53;5004490;28;20204;-80
2021/04/01 10:02:23;;;;;;;18.15;10.55;;;21.90;49.80;;;22.43;29.99;94930.66;4986583;28;20588;-80
2021/04/01 10:05:03;;;;;;;18.10;10.73;;;22.00;50.30;;;22.51;29.34;94928.25;5005336;28;20268;-80
2021/04/01 10:07:36;;;;;;;15.70;10.32;;;22.10;49.40;;;22.55;28.55;94923.16;5004396;28;20248;-80
2021/04/01 10:10:07;;;;;;;18.92;10.43;;;22.10;48.80;;;22.59;28.42;94915.41;5005629;28;20178;-80
2021/04/01 10:12:36;;;;;;;19.88;11.25;;;22.20;48.30;;;22.63;28.70;94921.81;5024133;28;20263;-80
2021/04/01 10:15:11;;;;;;;17.52;10.30;;;22.20;48.80;;;22.66;29.01;94915.94;5001739;28;20211;-79
2021/04/01 10:17:40;;;;;;;20.48;11.13;;;22.20;48.60;;;22.73;28.54;94916.47;4994995;28;20235;-79
2021/04/01 10:20:08;;;;;;;17.90;9.65;;;22.30;48.90;;;22.75;28.80;94921.56;5013031;28;20196;-80
2021/04/01 10:22:39;;;;;;;21.45;11.57;;;22.40;48.90;;;22.82;28.71;94908.72;4997409;28;20221;-80
2021/04/01 10:25:22;;;;;;;19.85;11.00;;;22.40;48.30;;;22.81;28.51;94896.41;5014220;28;20224;-80
2021/04/01 10:28:13;;;;;;;14.40;9.68;;;22.40;48.30;;;22.87;29.04;94887.31;5014486;28;20223;-80
2021/04/01 10:30:45;;;;;;;15.25;10.45;;;22.50;48.30;;;22.90;28.93;94878.75;5013359;28;20196;-80
2021/04/01 10:33:37;;;;;;;13.93;10.02;;;22.50;48.30;;;22.94;28.91;94871.78;4997702;28;20237;-80
2021/04/01 10:36:07;;;;;;;18.60;10.60;;;22.60;48.70;;;23.02;28.51;94873.91;5013952;28;20910;-80
2021/04/01 10:38:36;;;;;;;16.92;10.07;;;22.60;48.00;;;23.10;28.44;94879.78;5012104;28;20208;-80
2021/04/01 10:41:18;;;;;;;16.40;10.27;;;22.70;48.10;;;23.15;28.05;94856.47;5011908;28;20189;-79
2021/04/01 10:43:47;;;;;;;23.05;12.02;;;22.70;47.30;;;23.18;27.25;94860.53;5012082;28;20209;-79
2021/04/01 10:46:19;;;;;;;14.52;9.25;;;22.80;46.70;;;23.27;28.29;94852.72;5017312;28;20634;-80
2021/04/01 10:49:01;;;;;;;15.48;9.05;;;22.80;48.20;;;23.34;27.53;94853.25;4996436;28;20575;-80
2021/04/01 10:51:28;;;;;;;14.55;9.48;;;22.80;47.00;;;23.40;27.77;94860.19;5011866;28;20274;-79
2021/04/01 10:54:16;;;;;;;16.60;10.32;;;22.90;47.10;;;23.47;27.14;94852.66;5015008;28;20236;-79
2021/04/01 10:56:55;;;;;;;19.67;11.40;;;23.00;46.20;;;23.46;25.92;94853.72;5011813;28;20279;-79
2021/04/01 10:59:47;;;;;;;19.73;11.68;;;23.00;45.70;;;23.45;26.26;94843.28;4995549;28;20556;-80
2021/04/01 11:02:19;;;;;;;17.23;10.63;;;23.10;46.10;;;23.46;26.59;94844.88;5012266;28;20271;-79
2021/04/01 11:05:09;;;;;;;14.75;9.88;;;23.10;45.80;;;23.51;26.23;94836.84;5012084;28;20211;-79
2021/04/01 11:07:47;;;;;;;15.77;10.00;;;23.20;45.50;;;23.55;25.28;94856.63;5013467;28;20634;-78
2021/04/01 11:10:30;;;;;;;12.65;8.82;;;23.20;44.40;;;23.56;25.58;94839.47;5013644;28;20185;-79
2021/04/01 11:12:59;;;;;;;14.30;8.27;;;23.20;45.00;;;23.61;26.03;94815.34;4993834;28;20229;-79
2021/04/01 11:15:32;;;;;;;16.00;9.60;;;23.20;44.70;;;23.66;25.45;94833.28;4993483;28;20201;-80
2021/04/01 11:18:14;;;;;;;17.20;10.48;;;23.20;44.00;;;23.70;25.31;94836.97;4993814;28;20209;-80
2021/04/01 11:20:45;;;;;;;19.13;11.52;;;23.30;43.70;;;23.72;24.77;94818.78;4993784;28;20223;-80
2021/04/01 11:23:21;;;;;;;15.05;9.68;;;23.40;43.60;;;23.79;25.62;94824.63;4993715;28;20209;-79
2021/04/01 11:25:54;;;;;;;15.38;9.30;;;23.40;44.50;;;23.87;25.78;94807.16;4994505;28;20201;-79
2021/04/01 11:28:38;;;;;;;14.40;8.75;;;23.50;44.60;;;24.02;25.65;94808.16;5012973;28;20207;-80
2021/04/01 11:31:08;;;;;;;15.52;9.93;;;23.60;44.90;;;24.15;25.10;94815.56;5010021;28;20212;-79
2021/04/01 11:33:38;;;;;;;16.33;9.57;;;23.70;44.00;;;24.23;25.23;94800.75;5008897;28;20320;-80
2021/04/01 11:36:13;;;;;;;15.48;9.32;;;23.80;44.00;;;24.34;25.45;94809.50;5008252;28;20251;-79
2021/04/01 11:38:46;;;;;;;12.85;8.80;;;23.90;44.30;;;24.49;25.61;94803.22;5009904;28;20193;-79
2021/04/01 11:41:19;;;;;;;14.55;8.65;;;24.10;44.40;;;24.66;25.54;94810.84;5008028;28;20687;-79
2021/04/01 11:43:54;;;;;;;13.13;8.75;;;24.10;44.30;;;24.85;26.24;94798.31;5009454;28;20211;-80
2021/04/01 11:46:27;;;;;;;11.23;8.77;;;24.30;44.90;;;25.07;25.65;94794.28;5020317;28;20218;-79
2021/04/01 11:48:57;;;;;;;13.32;8.85;;;24.50;44.50;;;25.24;25.30;94789.28;5008536;28;20206;-80
2021/04/01 11:51:33;;;;;;;12.80;8.13;;;24.70;45.60;;;25.46;25.26;94792.50;5010751;28;20627;-79
2021/04/01 11:54:03;;;;;;;12.75;8.57;;;24.80;44.30;;;25.69;25.52;94780.88;4993069;28;20309;-80
2021/04/01 11:56:46;;;;;;;11.52;8.50;;;25.00;44.30;;;25.91;24.29;94768.75;5014379;28;20355;-80
2021/04/01 11:59:17;;;;;;;12.27;8.48;;;25.20;44.00;;;26.12;24.81;94780.03;5016236;28;20207;-80
2021/04/01 12:02:00;;;;;;;12.38;8.18;;;25.40;43.70;;;26.21;24.24;94780.16;5015992;28;20384;-79
2021/04/01 12:04:31;;;;;;;11.75;7.55;;;25.60;43.40;;;26.20;23.90;94767.78;5015093;28;20274;-79